• Join FlightAware (Why Join?)
  • Login
  • US Flag 
08:18AM EDT


 

Airport Tracker/Info


-or-


 

Live Flight TrackerFlight Track Log ✈ CPZ5750 ✈ 12-Jul-2013 ✈ KMSP - KALB

Flight Track Log - Related Links

Times and Time Zones

All times are in EDT time to prevent confusion due to time zone crossing. See the CPZ5750 flight status page for this flight to view local times or setup timezone preferences in your user account.

Time Position Orientation Groundspeed Altitude Reporting Facility
EDT Latitude Longitude Course Direction KTS MPH feet Rate Location/Type
04:35PM 44.8667 -93.1667 70° East 155 178 2,500  Level Minneapolis TRACON
04:35PM 44.8689 -93.1261 86° East 158 182 3,000 1,080 Climbing Minneapolis Center
04:36PM 44.9167 -93.0633 43° Northeast 240 276 4,300 1,680 Climbing Minneapolis Center
04:37PM 44.9892 -92.8008 69° East  Level FlightAware Approximate
04:37PM 44.9758 -92.9867 42° Northeast 296 341 6,500  Level Minneapolis Center
04:38PM 45.0280 -92.6606 68° East  Level FlightAware Approximate
04:38PM 45.0314 -92.8922 50° Northeast 313 360 9,000  Level Minneapolis Center
04:39PM 45.0679 -92.5210 68° East  Level FlightAware Approximate
04:39PM 45.0858 -92.7894 53° Northeast 328 377 10,800  Level Minneapolis Center
04:40PM 45.1011 -92.3789 70° East  Level FlightAware Approximate
04:41PM 45.1517 -92.6383 58° Northeast 374 430 13,100  Level Minneapolis Center
04:42PM 45.2067 -92.5100 59° Northeast 381 438 15,200 1,980 Climbing Minneapolis Center
04:43PM 45.2622 -92.3819 58° Northeast 381 438 17,200 1,620 Climbing Minneapolis Center
04:44PM 45.3103 -92.2428 64° Northeast 392 451 18,600 1,440 Climbing Minneapolis Center
04:45PM 45.3303 -92.0839 80° East 407 468 20,200 1,440 Climbing Minneapolis Center
04:46PM 45.3536 -91.9228 78° East 413 475 21,600 1,440 Climbing Minneapolis Center
04:47PM 45.3811 -91.7256 79° East 420 483 23,200 1,260 Climbing Minneapolis Center
04:48PM 45.4031 -91.5561 79° East 428 493 24,300 960 Climbing Minneapolis Center
04:49PM 45.4250 -91.3831 80° East 436 502 25,200 960 Climbing Minneapolis Center
04:50PM 45.4489 -91.2044 79° East 446 513 26,400 1,020 Climbing Minneapolis Center
04:51PM 45.4678 -91.0272 81° East 451 519 27,400 900 Climbing Minneapolis Center
04:52PM 45.4317 -90.8442 106° East 469 540 28,300 960 Climbing Minneapolis Center
04:53PM 45.4128 -90.6244 97° East 471 542 29,400 960 Climbing Minneapolis Center
04:54PM 45.3953 -90.4408 98° East 470 541 30,600 900 Climbing Minneapolis Center
04:55PM 45.3756 -90.2225 97° East 467 537 31,500 960 Climbing Minneapolis Center
04:56PM 45.3572 -90.0403 98° East 468 539 32,600 960 Climbing Minneapolis Center
04:57PM 45.3406 -89.8608 97° East 464 534 33,500 780 Climbing Minneapolis Center
04:58PM 45.3194 -89.6469 98° East 460 529 34,300 720 Climbing Minneapolis Center
04:59PM 45.3006 -89.4694 99° East 458 527 35,000 300 Climbing Minneapolis Center
05:00PM 45.2828 -89.2897 98° East 461 531 35,000  Level Minneapolis Center
05:01PM 45.2644 -89.1106 98° East 462 532 35,000  Level Minneapolis Center
05:02PM 45.2456 -88.9328 99° East 460 529 35,000  Level Minneapolis Center
05:03PM 45.2233 -88.7236 99° East 452 520 35,000  Level Minneapolis Center
05:05PM 45.2044 -88.5542 99° East 457 526 35,000  Level Minneapolis Center
05:06PM 45.1892 -88.4108 99° East 459 528 35,000  Level Minneapolis Center
05:07PM 45.1650 -88.1978 99° East 457 526 35,000  Level Minneapolis Center
05:08PM 45.1492 -88.0547 99° East 459 528 35,000  Level Minneapolis Center
05:09PM 45.1203 -87.8050 99° East 459 528 35,000  Level Minneapolis Center
05:10PM 45.1039 -87.6617 99° East 462 532 35,000  Level Minneapolis Center
05:11PM 45.0783 -87.4472 100° East 461 531 35,000  Level Minneapolis Center
05:12PM 45.0572 -87.2708 100° East 456 525 35,000  Level Minneapolis Center
05:13PM 45.0350 -87.0947 100° East 456 525 35,000  Level Minneapolis Center
05:14PM 45.0050 -86.8517 100° East 451 519 35,000  Level Minneapolis Center
05:15PM 44.9833 -86.6778 100° East 448 516 35,000  Level Minneapolis Center
05:16PM 44.9614 -86.5064 100° East 446 513 35,000  Level Minneapolis Center
05:17PM 44.9394 -86.3369 100° East 442 509 35,000  Level Minneapolis Center
05:18PM 44.9167 -86.1667 101° East 441 507 35,000  Level Minneapolis Center
05:19PM 44.8942 -85.9964 101° East 442 509 35,000  Level Minneapolis Center
05:20PM 44.8714 -85.8283 101° East 440 506 35,000  Level Minneapolis Center
05:21PM 44.8444 -85.6258 101° East 439 505 35,000  Level Minneapolis Center
05:22PM 44.8211 -85.4464 100° East 439 505 35,000  Level Minneapolis Center
05:23PM 44.8022 -85.3144 101° East 435 501 35,000  Level Minneapolis Center
05:24PM 44.7736 -85.1128 101° East 436 502 35,000  Level Minneapolis Center
05:25PM 44.7503 -84.9478 101° East 434 499 35,000  Level Minneapolis Center
05:26PM 44.7267 -84.7811 101° East 433 498 35,000  Level Minneapolis Center
05:27PM 44.7022 -84.6153 102° East 434 499 35,000  Level Minneapolis Center
05:29PM 44.6733 -84.4186 102° East 432 497 35,000  Level Minneapolis Center
05:30PM 44.6494 -84.2578 102° East 426 490 35,000  Level Minneapolis Center
05:31PM 44.6258 -84.0961 102° East 423 487 35,000  Level Minneapolis Center
05:32PM 44.6014 -83.9347 102° East 424 488 35,000  Level Minneapolis Center
05:33PM 44.5764 -83.7736 102° East 424 488 35,000  Level Minneapolis Center
05:34PM 44.5519 -83.6117 102° East 425 489 35,000  Level Minneapolis Center
05:35PM 44.5208 -83.4178 103° East 426 490 35,000  Level Minneapolis Center
05:36PM 44.4956 -83.2556 102° East 428 493 35,000  Level Minneapolis Center
05:37PM 44.4639 -83.0606 103° East 429 494 35,000  Level Minneapolis Center
05:38PM 44.4378 -82.8972 103° East 431 496 35,000  Level Minneapolis Center
05:39PM 44.4111 -82.7350 103° East 430 495 35,000  Level Minneapolis Center
05:40PM 44.3667 -82.5500 109° East 430 495 35,000  Level Toronto Center
05:41PM 44.3500 -82.3833 98° East 420 483 35,000  Level Toronto Center
05:42PM 44.3167 -82.2500 109° East 420 483 35,000  Level Toronto Center
05:43PM 44.2667 -82.0833 113° Southeast 430 495 35,000  Level Toronto Center
05:44PM 44.2500 -81.9167 98° East 430 495 35,000  Level Toronto Center
05:45PM 44.2000 -81.7667 115° Southeast 440 506 35,000  Level Toronto Center
05:46PM 44.1667 -81.5833 104° East 440 506 35,000  Level Toronto Center
05:47PM 44.1167 -81.4500 118° Southeast 430 495 35,000  Level Toronto Center
05:48PM 44.0833 -81.2833 106° East 430 495 35,000  Level Toronto Center
05:49PM 44.0333 -81.1167 113° Southeast 430 495 35,000  Level Toronto Center
05:50PM 44.0000 -80.9833 109° East 440 506 35,000  Level Toronto Center
05:51PM 43.9667 -80.7833 103° East 450 518 35,000  Level Toronto Center
05:52PM 43.9167 -80.6500 117° Southeast 440 506 35,000  Level Toronto Center
05:53PM 43.8833 -80.4833 105° East 440 506 35,000  Level Toronto Center
05:54PM 43.8333 -80.3333 115° Southeast 440 506 35,000  Level Toronto Center
05:55PM 43.8000 -80.1667 105° East 430 495 35,000  Level Toronto Center
05:56PM 43.7500 -80.0000 113° Southeast 430 495 35,000  Level Toronto Center
05:57PM 43.7167 -79.8667 109° East 430 495 35,000  Level Toronto Center
05:58PM 43.6667 -79.7000 112° Southeast 430 495 35,000  Level Toronto Center
05:59PM 43.6333 -79.5333 105° East 440 506 35,000  Level Toronto Center
06:00PM 43.6167 -79.3500 97° East 440 506 35,000  Level Toronto Center
06:01PM 43.6000 -79.2000 99° East 440 506 35,000  Level Toronto Center
06:02PM 43.5833 -79.0333 98° East 440 506 35,000  Level Toronto Center
06:03PM 43.5500 -78.8667 105° East 440 506 35,000 240 Level Toronto Center
06:04PM 43.5333 -78.6833 97° East 450 518 35,500 600 Climbing Toronto Center
06:05PM 43.5167 -78.5333 99° East 450 518 36,300 660 Climbing Toronto Center
06:06PM 43.4667 -78.3667 112° Southeast 450 518 36,900 420 Climbing Toronto Center
06:07PM 43.4797 -78.3031 74° East 448 516 37,000 60 Climbing Cleveland Center
06:08PM 43.4556 -78.1353 101° East 448 516 37,000  Level Cleveland Center
06:09PM 43.4289 -77.9619 102° East 448 516 37,000 -540 Level Cleveland Center
06:10PM 43.4061 -77.7886 100° East 453 521 36,000 -1,020 Descending Cleveland Center
06:11PM 43.3808 -77.6125 101° East 453 521 35,000 -1,020 Descending Cleveland Center
06:12PM 43.3556 -77.4425 102° East 453 521 34,000 -1,020 Descending Cleveland Center
06:13PM 43.3133 -77.1694 102° East 487 560 32,400 -1,020 Descending Boston Center
06:14PM 43.2833 -77.0000 104° East 460 529 31,500 -1,080 Descending Toronto Center
06:15PM 43.2500 -76.8167 104° East 460 529 30,500 -1,020 Descending Toronto Center
06:16PM 43.2167 -76.6333 104° East 460 529 29,500 -1,020 Descending Toronto Center
06:17PM 43.2000 -76.4833 99° East 460 529 28,500 -1,020 Descending Toronto Center
06:18PM 43.1667 -76.3167 105° East 450 518 27,500 -960 Descending Toronto Center
06:19PM 43.1567 -76.1606 95° East 446 513 26,400 -1,080 Descending Boston Center
06:20PM 43.1269 -75.9794 103° East 441 507 25,200 -1,140 Descending Boston Center
06:21PM 43.1025 -75.8272 102° East 430 495 24,200 -960 Descending Boston Center
06:22PM 43.0756 -75.6778 104° East 414 476 23,300 -960 Descending Boston Center
06:23PM 43.0506 -75.5231 102° East 414 476 22,300 -1,020 Descending Boston Center
06:24PM 43.0272 -75.3800 103° East 409 471 21,300 -1,020 Descending Boston Center
06:25PM 43.0017 -75.2367 104° East 395 455 20,300 -1,020 Descending Boston Center
06:26PM 42.9761 -75.0936 104° East 385 443 19,300 -1,200 Descending Boston Center
06:27PM 42.9539 -74.9592 103° East 379 436 17,900 -1,560 Descending Boston Center
06:28PM 42.9319 -74.8222 102° East 379 436 16,200 -1,860 Descending Boston Center
06:29PM 42.9075 -74.6908 104° East 368 423 14,200 -1,920 Descending Boston Center
06:30PM 42.8942 -74.6222 105° East 344 396 13,200 -1,440 Descending Boston Center
06:30PM 42.8867 -74.5794 103° East 347 399 12,500 -1,500 Descending Boston Center
06:31PM 42.8394 -74.4278 113° Southeast 336 387 10,800 -1,620 Descending Boston Center
06:32PM 42.7972 -74.3303 121° Southeast 303 349 9,300 -1,500 Descending Boston Center
06:33PM 42.7572 -74.2414 121° Southeast 286 329 7,900 -1,620 Descending Boston Center
06:34PM 42.7167 -74.1525 122° Southeast 281 323 6,100 -1,500 Descending Boston Center
06:35PM 42.6864 -74.0867 122° Southeast 281 323 5,000 -1,080 Descending Boston Center
06:36PM 42.6542 -74.0153 122° Southeast 270 311 4,000 -540 Descending Boston Center
06:37PM 42.6156 -73.9325 122° Southeast 237 273 4,000 -180 Level Boston Center
06:38PM 42.5994 -73.8956 121° Southeast 202 232 3,800 -600 Descending Boston Center
06:38PM 42.6000 -73.8644 89° East 209 241 3,400 -900 Descending Boston Center
06:39PM 42.6381 -73.8144 44° Northeast 154 177 2,500 -900 Descending Boston Center